sensor_id;sensor_type;location;lat;lon;timestamp;pressure;altitude;pressure_sealevel;temperature;humidity
46392;BME280;32098;49.448;7.904;2023-10-08T00:00:25;99006.03;;;14.00;72.73
46392;BME280;32098;49.448;7.904;2023-10-08T00:03:11;99005.44;;;13.98;72.79
46392;BME280;32098;49.448;7.904;2023-10-08T00:05:38;98990.50;;;13.91;72.99
46392;BME280;32098;49.448;7.904;2023-10-08T00:08:07;99002.28;;;14.01;72.64
46392;BME280;32098;49.448;7.904;2023-10-08T00:10:39;99011.16;;;14.02;72.68
46392;BME280;32098;49.448;7.904;2023-10-08T00:13:12;99007.06;;;13.99;72.71
46392;BME280;32098;49.448;7.904;2023-10-08T00:15:43;99014.91;;;14.01;72.72
46392;BME280;32098;49.448;7.904;2023-10-08T00:18:19;99005.22;;;14.00;72.50
46392;BME280;32098;49.448;7.904;2023-10-08T00:20:46;99021.44;;;14.05;72.45
46392;BME280;32098;49.448;7.904;2023-10-08T00:23:22;99024.47;;;13.97;72.44
46392;BME280;32098;49.448;7.904;2023-10-08T00:25:53;99026.94;;;13.98;72.52
46392;BME280;32098;49.448;7.904;2023-10-08T00:28:21;99022.47;;;14.04;72.28
46392;BME280;32098;49.448;7.904;2023-10-08T00:30:48;99027.97;;;13.97;72.70
46392;BME280;32098;49.448;7.904;2023-10-08T00:33:16;99029.38;;;14.00;72.50
46392;BME280;32098;49.448;7.904;2023-10-08T00:35:43;99015.50;;;14.03;72.32
46392;BME280;32098;49.448;7.904;2023-10-08T00:38:11;99018.41;;;14.01;72.31
46392;BME280;32098;49.448;7.904;2023-10-08T00:40:42;99015.47;;;13.91;72.71
46392;BME280;32098;49.448;7.904;2023-10-08T00:43:33;99010.69;;;13.93;72.54
46392;BME280;32098;49.448;7.904;2023-10-08T00:46:03;99018.63;;;13.88;72.57
46392;BME280;32098;49.448;7.904;2023-10-08T00:48:37;99018.84;;;13.87;72.66
46392;BME280;32098;49.448;7.904;2023-10-08T00:51:05;99014.06;;;13.89;72.57
46392;BME280;32098;49.448;7.904;2023-10-08T00:53:57;99004.38;;;13.88;72.71
46392;BME280;32098;49.448;7.904;2023-10-08T00:56:29;99013.25;;;13.88;72.58
46392;BME280;32098;49.448;7.904;2023-10-08T00:59:14;99009.25;;;13.79;72.89
46392;BME280;32098;49.448;7.904;2023-10-08T01:01:45;99004.47;;;13.81;72.71
46392;BME280;32098;49.448;7.904;2023-10-08T01:04:17;99011.13;;;13.79;72.81
46392;BME280;32098;49.448;7.904;2023-10-08T01:06:46;99006.13;;;13.82;72.79
46392;BME280;32098;49.448;7.904;2023-10-08T01:09:15;99002.28;;;13.78;72.73
46392;BME280;32098;49.448;7.904;2023-10-08T01:11:45;99002.28;;;13.78;72.80
46392;BME280;32098;49.448;7.904;2023-10-08T01:14:12;98996.66;;;13.68;73.24
46392;BME280;32098;49.448;7.904;2023-10-08T01:16:41;98995.91;;;13.61;73.50
46392;BME280;32098;49.448;7.904;2023-10-08T01:19:19;98998.97;;;13.64;73.24
46392;BME280;32098;49.448;7.904;2023-10-08T01:21:46;98996.97;;;13.60;73.56
46392;BME280;32098;49.448;7.904;2023-10-08T01:24:13;98995.59;;;13.69;73.25
46392;BME280;32098;49.448;7.904;2023-10-08T01:26:43;98990.47;;;13.67;73.11
46392;BME280;32098;49.448;7.904;2023-10-08T01:29:12;98971.00;;;13.42;73.64
46392;BME280;32098;49.448;7.904;2023-10-08T01:31:48;98986.56;;;13.52;73.79
46392;BME280;32098;49.448;7.904;2023-10-08T01:34:19;98987.56;;;13.51;74.06
46392;BME280;32098;49.448;7.904;2023-10-08T01:36:53;98990.66;;;13.54;73.96
46392;BME280;32098;49.448;7.904;2023-10-08T01:39:20;98991.25;;;13.56;73.53
46392;BME280;32098;49.448;7.904;2023-10-08T01:41:46;98998.31;;;13.51;73.85
46392;BME280;32098;49.448;7.904;2023-10-08T01:44:13;98996.59;;;13.56;73.82
46392;BME280;32098;49.448;7.904;2023-10-08T01:46:40;98991.31;;;13.50;73.57
46392;BME280;32098;49.448;7.904;2023-10-08T01:49:10;98997.88;;;13.54;73.69
46392;BME280;32098;49.448;7.904;2023-10-08T01:51:42;98984.47;;;13.54;73.56
46392;BME280;32098;49.448;7.904;2023-10-08T01:54:16;98982.84;;;13.53;73.56
46392;BME280;32098;49.448;7.904;2023-10-08T01:56:47;98983.88;;;13.52;73.51
46392;BME280;32098;49.448;7.904;2023-10-08T01:59:15;98985.81;;;13.45;73.97
46392;BME280;32098;49.448;7.904;2023-10-08T02:01:43;98982.19;;;13.51;73.69
46392;BME280;32098;49.448;7.904;2023-10-08T02:04:11;98985.03;;;13.56;73.48
46392;BME280;32098;49.448;7.904;2023-10-08T02:06:39;98990.94;;;13.46;73.92
46392;BME280;32098;49.448;7.904;2023-10-08T02:09:06;98990.13;;;13.46;73.69
46392;BME280;32098;49.448;7.904;2023-10-08T02:11:42;98994.47;;;13.47;73.58
46392;BME280;32098;49.448;7.904;2023-10-08T02:14:09;98983.47;;;13.37;73.74
46392;BME280;32098;49.448;7.904;2023-10-08T02:16:36;98974.44;;;13.20;74.09
46392;BME280;32098;49.448;7.904;2023-10-08T02:19:04;98990.78;;;13.30;74.20
46392;BME280;32098;49.448;7.904;2023-10-08T02:21:33;98988.25;;;13.35;74.10
46392;BME280;32098;49.448;7.904;2023-10-08T02:23:59;98983.31;;;13.32;74.34
46392;BME280;32098;49.448;7.904;2023-10-08T02:26:26;98979.63;;;13.33;74.20
46392;BME280;32098;49.448;7.904;2023-10-08T02:28:53;98973.41;;;13.32;73.99
46392;BME280;32098;49.448;7.904;2023-10-08T02:31:20;98972.59;;;13.32;73.56
46392;BME280;32098;49.448;7.904;2023-10-08T02:33:46;98978.13;;;13.19;74.04
46392;BME280;32098;49.448;7.904;2023-10-08T02:36:13;98979.38;;;13.04;74.54
46392;BME280;32098;49.448;7.904;2023-10-08T02:38:40;98990.22;;;12.80;75.77
46392;BME280;32098;49.448;7.904;2023-10-08T02:41:07;98986.66;;;12.68;76.43
46392;BME280;32098;49.448;7.904;2023-10-08T02:43:33;98978.97;;;12.53;77.61
46392;BME280;32098;49.448;7.904;2023-10-08T02:46:03;98970.50;;;12.56;77.29
46392;BME280;32098;49.448;7.904;2023-10-08T02:48:41;98976.97;;;12.67;76.81
46392;BME280;32098;49.448;7.904;2023-10-08T02:51:08;98983.66;;;12.76;76.76
46392;BME280;32098;49.448;7.904;2023-10-08T02:53:40;98984.84;;;12.80;76.69
46392;BME280;32098;49.448;7.904;2023-10-08T02:56:10;98986.84;;;12.84;76.52
46392;BME280;32098;49.448;7.904;2023-10-08T02:58:40;98978.38;;;12.87;76.25
46392;BME280;32098;49.448;7.904;2023-10-08T03:01:07;98985.34;;;12.88;76.13
46392;BME280;32098;49.448;7.904;2023-10-08T03:03:40;98945.41;;;12.69;76.07
46392;BME280;32098;49.448;7.904;2023-10-08T03:06:07;98985.50;;;12.93;76.12
46392;BME280;32098;49.448;7.904;2023-10-08T03:08:41;98986.75;;;12.91;76.18
46392;BME280;32098;49.448;7.904;2023-10-08T03:11:09;98991.34;;;12.90;76.51
46392;BME280;32098;49.448;7.904;2023-10-08T03:13:44;98985.97;;;12.90;76.60
46392;BME280;32098;49.448;7.904;2023-10-08T03:16:13;98985.16;;;12.90;76.46
46392;BME280;32098;49.448;7.904;2023-10-08T03:18:41;98970.91;;;12.89;76.28
46392;BME280;32098;49.448;7.904;2023-10-08T03:21:10;98987.16;;;12.94;76.11
46392;BME280;32098;49.448;7.904;2023-10-08T03:24:08;98979.34;;;12.93;75.68
46392;BME280;32098;49.448;7.904;2023-10-08T03:26:58;98978.50;;;12.92;76.00
46392;BME280;32098;49.448;7.904;2023-10-08T03:29:38;98966.59;;;12.88;75.83
46392;BME280;32098;49.448;7.904;2023-10-08T03:32:13;98975.47;;;12.89;76.01
46392;BME280;32098;49.448;7.904;2023-10-08T03:34:47;98977.94;;;12.90;76.01
46392;BME280;32098;49.448;7.904;2023-10-08T03:37:16;98968.22;;;12.89;75.92
46392;BME280;32098;49.448;7.904;2023-10-08T03:39:55;98976.72;;;12.86;76.12
46392;BME280;32098;49.448;7.904;2023-10-08T03:42:41;98964.09;;;12.75;75.93
46392;BME280;32098;49.448;7.904;2023-10-08T03:45:08;98974.97;;;12.80;75.85
46392;BME280;32098;49.448;7.904;2023-10-08T03:47:39;98967.44;;;12.71;76.41
46392;BME280;32098;49.448;7.904;2023-10-08T03:50:08;98964.41;;;12.67;76.60
46392;BME280;32098;49.448;7.904;2023-10-08T03:52:36;98971.38;;;12.68;76.30
46392;BME280;32098;49.448;7.904;2023-10-08T03:55:05;98962.78;;;12.48;77.26
46392;BME280;32098;49.448;7.904;2023-10-08T03:57:47;98973.94;;;12.45;77.81
46392;BME280;32098;49.448;7.904;2023-10-08T04:00:23;98967.03;;;12.31;78.10
46392;BME280;32098;49.448;7.904;2023-10-08T04:02:58;98963.91;;;12.34;77.77
46392;BME280;32098;49.448;7.904;2023-10-08T04:05:35;98961.16;;;12.22;77.54
46392;BME280;32098;49.448;7.904;2023-10-08T04:08:31;98964.97;;;12.15;78.68
46392;BME280;32098;49.448;7.904;2023-10-08T04:11:09;98968.31;;;12.10;79.17
46392;BME280;32098;49.448;7.904;2023-10-08T04:13:48;98978.47;;;12.02;80.00
46392;BME280;32098;49.448;7.904;2023-10-08T04:16:15;98975.19;;;12.00;80.46
46392;BME280;32098;49.448;7.904;2023-10-08T04:18:47;98983.22;;;12.00;81.25
46392;BME280;32098;49.448;7.904;2023-10-08T04:21:18;98973.47;;;11.87;81.02
46392;BME280;32098;49.448;7.904;2023-10-08T04:23:47;98981.41;;;11.69;82.13
46392;BME280;32098;49.448;7.904;2023-10-08T04:26:18;98983.69;;;11.65;81.76
46392;BME280;32098;49.448;7.904;2023-10-08T04:28:54;98978.59;;;11.64;82.39
46392;BME280;32098;49.448;7.904;2023-10-08T04:31:24;98981.41;;;11.69;82.29
46392;BME280;32098;49.448;7.904;2023-10-08T04:33:55;98983.00;;;11.76;82.13
46392;BME280;32098;49.448;7.904;2023-10-08T04:36:27;98991.59;;;11.60;81.85
46392;BME280;32098;49.448;7.904;2023-10-08T04:38:54;98993.88;;;11.57;82.75
46392;BME280;32098;49.448;7.904;2023-10-08T04:41:24;98993.03;;;11.56;82.98
46392;BME280;32098;49.448;7.904;2023-10-08T04:43:54;98996.16;;;11.53;82.50
46392;BME280;32098;49.448;7.904;2023-10-08T04:46:22;98993.38;;;11.66;82.56
46392;BME280;32098;49.448;7.904;2023-10-08T04:49:14;98987.16;;;11.72;82.51
46392;BME280;32098;49.448;7.904;2023-10-08T04:51:49;98985.09;;;11.74;82.41
46392;BME280;32098;49.448;7.904;2023-10-08T04:54:18;98987.34;;;11.77;82.21
46392;BME280;32098;49.448;7.904;2023-10-08T04:56:45;98988.09;;;11.85;81.63
46392;BME280;32098;49.448;7.904;2023-10-08T04:59:11;98982.44;;;11.68;81.20
46392;BME280;32098;49.448;7.904;2023-10-08T05:01:38;98974.41;;;11.68;80.49
46392;BME280;32098;49.448;7.904;2023-10-08T05:04:16;98976.50;;;11.66;80.33
46392;BME280;32098;49.448;7.904;2023-10-08T05:06:57;98983.66;;;11.47;80.47
46392;BME280;32098;49.448;7.904;2023-10-08T05:09:47;98980.03;;;11.35;82.99
46392;BME280;32098;49.448;7.904;2023-10-08T05:12:14;98980.84;;;11.36;83.50
46392;BME280;32098;49.448;7.904;2023-10-08T05:15:00;98971.31;;;11.46;83.10
46392;BME280;32098;49.448;7.904;2023-10-08T05:17:48;98971.38;;;11.40;83.64
46392;BME280;32098;49.448;7.904;2023-10-08T05:20:19;98969.69;;;11.45;83.77
46392;BME280;32098;49.448;7.904;2023-10-08T05:22:56;98970.78;;;11.31;83.48
46392;BME280;32098;49.448;7.904;2023-10-08T05:25:42;98988.44;;;11.39;83.23
46392;BME280;32098;49.448;7.904;2023-10-08T05:28:25;98973.97;;;11.15;83.21
46392;BME280;32098;49.448;7.904;2023-10-08T05:30:52;98980.22;;;10.96;84.02
46392;BME280;32098;49.448;7.904;2023-10-08T05:33:38;98978.84;;;10.80;84.07
46392;BME280;32098;49.448;7.904;2023-10-08T05:36:24;98981.38;;;10.75;85.45
46392;BME280;32098;49.448;7.904;2023-10-08T05:39:01;98978.41;;;10.90;85.09
46392;BME280;32098;49.448;7.904;2023-10-08T05:41:30;98985.97;;;10.93;85.79
46392;BME280;32098;49.448;7.904;2023-10-08T05:44:18;98998.38;;;10.81;85.33
46392;BME280;32098;49.448;7.904;2023-10-08T05:46:44;98984.66;;;10.71;85.45
46392;BME280;32098;49.448;7.904;2023-10-08T05:49:20;99007.44;;;10.80;85.66
46392;BME280;32098;49.448;7.904;2023-10-08T05:52:05;99017.91;;;10.81;85.33
46392;BME280;32098;49.448;7.904;2023-10-08T05:54:32;99023.31;;;10.62;86.13
46392;BME280;32098;49.448;7.904;2023-10-08T05:57:04;99021.06;;;10.65;86.50
46392;BME280;32098;49.448;7.904;2023-10-08T05:59:51;99023.28;;;10.75;86.11
46392;BME280;32098;49.448;7.904;2023-10-08T06:02:26;99023.41;;;10.93;85.94
46392;BME280;32098;49.448;7.904;2023-10-08T06:05:15;99029.56;;;11.00;84.33
46392;BME280;32098;49.448;7.904;2023-10-08T06:07:53;99022.50;;;11.12;83.80
46392;BME280;32098;49.448;7.904;2023-10-08T06:10:30;99031.91;;;11.21;84.03
46392;BME280;32098;49.448;7.904;2023-10-08T06:12:59;99029.88;;;11.17;83.21
46392;BME280;32098;49.448;7.904;2023-10-08T06:15:41;99039.69;;;11.29;82.78
46392;BME280;32098;49.448;7.904;2023-10-08T06:18:11;99019.94;;;11.30;82.63
46392;BME280;32098;49.448;7.904;2023-10-08T06:20:40;99033.94;;;11.26;82.18
46392;BME280;32098;49.448;7.904;2023-10-08T06:23:13;99029.56;;;11.44;81.62
46392;BME280;32098;49.448;7.904;2023-10-08T06:25:45;99030.97;;;11.47;81.73
46392;BME280;32098;49.448;7.904;2023-10-08T06:28:15;99028.41;;;11.58;82.20
46392;BME280;32098;49.448;7.904;2023-10-08T06:30:47;99028.25;;;11.53;81.38
46392;BME280;32098;49.448;7.904;2023-10-08T06:33:15;99026.38;;;11.60;81.38
46392;BME280;32098;49.448;7.904;2023-10-08T06:35:46;99043.31;;;11.48;81.12
46392;BME280;32098;49.448;7.904;2023-10-08T06:38:32;99034.91;;;11.44;82.21
46392;BME280;32098;49.448;7.904;2023-10-08T06:41:02;99034.31;;;11.42;83.77
46392;BME280;32098;49.448;7.904;2023-10-08T06:43:37;99038.28;;;11.64;84.74
46392;BME280;32098;49.448;7.904;2023-10-08T06:46:04;99033.44;;;11.80;85.49
46392;BME280;32098;49.448;7.904;2023-10-08T06:48:34;99033.50;;;11.98;84.75
46392;BME280;32098;49.448;7.904;2023-10-08T06:51:01;99043.19;;;12.17;82.68
46392;BME280;32098;49.448;7.904;2023-10-08T06:53:43;99051.63;;;12.20;79.65
46392;BME280;32098;49.448;7.904;2023-10-08T06:56:13;99053.09;;;11.92;79.99
46392;BME280;32098;49.448;7.904;2023-10-08T06:58:44;99044.47;;;11.90;80.94
46392;BME280;32098;49.448;7.904;2023-10-08T07:01:17;99048.75;;;11.91;80.24
46392;BME280;32098;49.448;7.904;2023-10-08T07:04:06;99051.94;;;12.06;80.61
46392;BME280;32098;49.448;7.904;2023-10-08T07:06:33;99051.41;;;12.22;80.63
46392;BME280;32098;49.448;7.904;2023-10-08T07:09:03;99045.75;;;12.55;78.84
46392;BME280;32098;49.448;7.904;2023-10-08T07:11:32;99044.94;;;12.90;77.92
46392;BME280;32098;49.448;7.904;2023-10-08T07:14:01;99028.88;;;12.90;74.95
46392;BME280;32098;49.448;7.904;2023-10-08T07:16:32;99055.47;;;13.22;75.17
46392;BME280;32098;49.448;7.904;2023-10-08T07:18:59;99052.28;;;13.61;74.74
46392;BME280;32098;49.448;7.904;2023-10-08T07:21:29;99065.38;;;14.10;73.45
46392;BME280;32098;49.448;7.904;2023-10-08T07:24:05;99063.28;;;14.47;71.89
46392;BME280;32098;49.448;7.904;2023-10-08T07:26:41;99072.16;;;14.82;70.29
46392;BME280;32098;49.448;7.904;2023-10-08T07:29:14;99064.28;;;15.04;69.60
46392;BME280;32098;49.448;7.904;2023-10-08T07:31:44;99081.03;;;14.94;68.75
46392;BME280;32098;49.448;7.904;2023-10-08T07:34:18;99056.41;;;14.86;70.28
46392;BME280;32098;49.448;7.904;2023-10-08T07:36:54;99074.94;;;15.11;67.57
46392;BME280;32098;49.448;7.904;2023-10-08T07:39:22;99038.88;;;15.12;68.08
46392;BME280;32098;49.448;7.904;2023-10-08T07:41:53;99069.75;;;15.61;67.70
46392;BME280;32098;49.448;7.904;2023-10-08T07:44:23;99071.72;;;15.65;66.58
46392;BME280;32098;49.448;7.904;2023-10-08T07:46:51;99069.56;;;15.79;65.28
46392;BME280;32098;49.448;7.904;2023-10-08T07:49:18;99086.22;;;16.09;65.46
46392;BME280;32098;49.448;7.904;2023-10-08T07:51:44;99096.69;;;16.22;64.81
46392;BME280;32098;49.448;7.904;2023-10-08T07:54:24;99089.69;;;16.21;64.08
46392;BME280;32098;49.448;7.904;2023-10-08T07:56:51;99086.81;;;16.11;63.58
46392;BME280;32098;49.448;7.904;2023-10-08T07:59:18;99099.38;;;16.22;63.84
46392;BME280;32098;49.448;7.904;2023-10-08T08:01:44;99101.41;;;16.15;63.09
46392;BME280;32098;49.448;7.904;2023-10-08T08:04:12;99104.75;;;16.05;63.38
46392;BME280;32098;49.448;7.904;2023-10-08T08:06:50;99095.69;;;15.95;63.48
46392;BME280;32098;49.448;7.904;2023-10-08T08:09:17;99103.13;;;16.04;63.89
46392;BME280;32098;49.448;7.904;2023-10-08T08:11:46;99107.78;;;16.09;64.61
46392;BME280;32098;49.448;7.904;2023-10-08T08:14:14;99097.72;;;16.04;64.12
46392;BME280;32098;49.448;7.904;2023-10-08T08:16:44;99103.38;;;16.03;63.86
46392;BME280;32098;49.448;7.904;2023-10-08T08:19:15;99098.56;;;16.05;63.49
46392;BME280;32098;49.448;7.904;2023-10-08T08:21:43;99104.75;;;16.05;63.26
46392;BME280;32098;49.448;7.904;2023-10-08T08:24:12;99097.91;;;15.98;63.55
46392;BME280;32098;49.448;7.904;2023-10-08T08:26:39;99098.72;;;15.98;63.76
46392;BME280;32098;49.448;7.904;2023-10-08T08:29:11;99103.44;;;15.91;63.77
46392;BME280;32098;49.448;7.904;2023-10-08T08:31:41;99101.63;;;15.97;63.26
46392;BME280;32098;49.448;7.904;2023-10-08T08:34:12;99103.50;;;16.41;62.74
46392;BME280;32098;49.448;7.904;2023-10-08T08:36:46;99096.22;;;16.97;61.62
46392;BME280;32098;49.448;7.904;2023-10-08T08:39:16;99081.63;;;17.36;59.97
46392;BME280;32098;49.448;7.904;2023-10-08T08:41:58;99100.16;;;17.76;58.88
46392;BME280;32098;49.448;7.904;2023-10-08T08:44:28;99109.16;;;18.08;58.56
46392;BME280;32098;49.448;7.904;2023-10-08T08:47:00;99106.91;;;18.27;59.04
46392;BME280;32098;49.448;7.904;2023-10-08T08:49:33;99116.69;;;18.33;58.03
46392;BME280;32098;49.448;7.904;2023-10-08T08:52:00;99107.69;;;18.27;57.43
46392;BME280;32098;49.448;7.904;2023-10-08T08:54:27;99117.63;;;18.17;57.50
46392;BME280;32098;49.448;7.904;2023-10-08T08:56:57;99118.66;;;18.11;57.57
46392;BME280;32098;49.448;7.904;2023-10-08T08:59:28;99117.06;;;18.15;57.24
46392;BME280;32098;49.448;7.904;2023-10-08T09:01:58;99126.91;;;18.26;57.31
46392;BME280;32098;49.448;7.904;2023-10-08T09:04:30;99123.50;;;18.40;56.81
46392;BME280;32098;49.448;7.904;2023-10-08T09:07:23;99122.31;;;18.63;57.01
46392;BME280;32098;49.448;7.904;2023-10-08T09:09:49;99121.22;;;18.59;57.04
46392;BME280;32098;49.448;7.904;2023-10-08T09:12:17;99116.09;;;18.62;57.66
46392;BME280;32098;49.448;7.904;2023-10-08T09:14:44;99126.09;;;18.62;57.20
46392;BME280;32098;49.448;7.904;2023-10-08T09:17:16;99118.44;;;18.49;56.67
46392;BME280;32098;49.448;7.904;2023-10-08T09:19:43;99128.69;;;18.84;56.22
46392;BME280;32098;49.448;7.904;2023-10-08T09:22:10;99125.97;;;19.25;56.25
46392;BME280;32098;49.448;7.904;2023-10-08T09:24:39;99126.69;;;19.63;56.32
46392;BME280;32098;49.448;7.904;2023-10-08T09:27:08;99130.03;;;19.95;53.99
46392;BME280;32098;49.448;7.904;2023-10-08T09:29:35;99115.97;;;20.18;53.16
46392;BME280;32098;49.448;7.904;2023-10-08T09:32:11;99118.69;;;20.13;51.97
46392;BME280;32098;49.448;7.904;2023-10-08T09:34:38;99114.34;;;20.12;52.31
46392;BME280;32098;49.448;7.904;2023-10-08T09:37:04;99097.50;;;19.95;53.01
46392;BME280;32098;49.448;7.904;2023-10-08T09:39:31;99093.66;;;19.76;52.64
46392;BME280;32098;49.448;7.904;2023-10-08T09:42:01;99109.63;;;19.67;53.42
46392;BME280;32098;49.448;7.904;2023-10-08T09:44:34;99090.88;;;19.56;53.34
46392;BME280;32098;49.448;7.904;2023-10-08T09:47:08;99093.81;;;19.39;53.23
46392;BME280;32098;49.448;7.904;2023-10-08T09:49:43;99107.81;;;19.21;53.56
46392;BME280;32098;49.448;7.904;2023-10-08T09:52:16;99101.84;;;19.14;53.69
46392;BME280;32098;49.448;7.904;2023-10-08T09:54:50;99087.69;;;19.02;54.38
46392;BME280;32098;49.448;7.904;2023-10-08T09:57:21;99100.19;;;19.13;54.92
46392;BME280;32098;49.448;7.904;2023-10-08T09:59:50;99101.22;;;19.02;54.62
46392;BME280;32098;49.448;7.904;2023-10-08T10:02:17;99099.28;;;18.97;54.60
46392;BME280;32098;49.448;7.904;2023-10-08T10:04:44;99098.16;;;18.88;54.21
46392;BME280;32098;49.448;7.904;2023-10-08T10:07:12;99104.47;;;18.99;54.52
46392;BME280;32098;49.448;7.904;2023-10-08T10:09:49;99085.19;;;18.90;54.65
46392;BME280;32098;49.448;7.904;2023-10-08T10:12:21;99098.28;;;19.08;54.88
46392;BME280;32098;49.448;7.904;2023-10-08T10:14:56;99096.97;;;19.21;54.84
46392;BME280;32098;49.448;7.904;2023-10-08T10:17:26;99100.00;;;19.29;55.02
46392;BME280;32098;49.448;7.904;2023-10-08T10:20:11;99103.03;;;19.43;55.64
46392;BME280;32098;49.448;7.904;2023-10-08T10:22:42;99089.50;;;19.53;54.73
46392;BME280;32098;49.448;7.904;2023-10-08T10:25:10;99063.78;;;19.61;54.01
46392;BME280;32098;49.448;7.904;2023-10-08T10:30:22;99082.31;;;19.94;53.48
46392;BME280;32098;49.448;7.904;2023-10-08T10:32:54;99083.69;;;20.02;53.17
46392;BME280;32098;49.448;7.904;2023-10-08T10:35:21;99085.03;;;19.94;53.16
46392;BME280;32098;49.448;7.904;2023-10-08T10:37:50;99088.84;;;20.13;53.31
46392;BME280;32098;49.448;7.904;2023-10-08T10:40:22;99093.22;;;20.39;53.95
46392;BME280;32098;49.448;7.904;2023-10-08T10:43:06;99089.38;;;20.60;54.05
46392;BME280;32098;49.448;7.904;2023-10-08T10:45:36;99085.56;;;20.77;53.38
46392;BME280;32098;49.448;7.904;2023-10-08T10:48:03;99085.00;;;20.95;52.73
46392;BME280;32098;49.448;7.904;2023-10-08T10:50:47;99077.59;;;21.15;52.08
46392;BME280;32098;49.448;7.904;2023-10-08T10:53:33;99071.38;;;21.10;51.40
46392;BME280;32098;49.448;7.904;2023-10-08T10:56:00;99078.94;;;21.18;50.72
46392;BME280;32098;49.448;7.904;2023-10-08T10:58:35;99073.75;;;21.27;51.32
46392;BME280;32098;49.448;7.904;2023-10-08T11:01:06;99077.81;;;21.34;51.19
46392;BME280;32098;49.448;7.904;2023-10-08T11:03:50;99071.81;;;21.37;49.91
46392;BME280;32098;49.448;7.904;2023-10-08T11:06:19;99074.25;;;21.39;49.45
46392;BME280;32098;49.448;7.904;2023-10-08T11:08:50;99078.53;;;21.55;50.27
46392;BME280;32098;49.448;7.904;2023-10-08T11:11:26;99077.66;;;21.64;49.79
46392;BME280;32098;49.448;7.904;2023-10-08T11:13:59;99068.16;;;21.62;49.44
46392;BME280;32098;49.448;7.904;2023-10-08T11:16:27;99075.41;;;21.76;50.31
46392;BME280;32098;49.448;7.904;2023-10-08T11:18:58;99066.19;;;21.72;49.37
46392;BME280;32098;49.448;7.904;2023-10-08T11:21:28;99069.69;;;21.73;49.76
46392;BME280;32098;49.448;7.904;2023-10-08T11:24:00;99069.72;;;21.68;49.85
46392;BME280;32098;49.448;7.904;2023-10-08T11:26:36;99061.91;;;21.61;48.83
46392;BME280;32098;49.448;7.904;2023-10-08T11:29:06;99064.09;;;21.59;49.88
46392;BME280;32098;49.448;7.904;2023-10-08T11:31:41;99056.78;;;21.55;49.58
46392;BME280;32098;49.448;7.904;2023-10-08T11:34:10;99057.34;;;21.52;49.64
46392;BME280;32098;49.448;7.904;2023-10-08T11:36:40;99063.06;;;21.45;50.00
46392;BME280;32098;49.448;7.904;2023-10-08T11:39:19;99053.75;;;21.56;50.60
46392;BME280;32098;49.448;7.904;2023-10-08T11:44:22;99051.06;;;21.51;49.30
46392;BME280;32098;49.448;7.904;2023-10-08T11:46:50;99047.50;;;21.56;49.62
46392;BME280;32098;49.448;7.904;2023-10-08T11:49:18;99054.03;;;21.60;49.69
46392;BME280;32098;49.448;7.904;2023-10-08T11:51:47;99051.34;;;21.55;49.16
46392;BME280;32098;49.448;7.904;2023-10-08T11:54:13;99051.13;;;21.41;49.36
46392;BME280;32098;49.448;7.904;2023-10-08T11:56:41;99052.16;;;21.50;49.86
46392;BME280;32098;49.448;7.904;2023-10-08T11:59:08;99059.22;;;21.51;50.52
46392;BME280;32098;49.448;7.904;2023-10-08T12:01:39;99051.91;;;21.52;49.47
46392;BME280;32098;49.448;7.904;2023-10-08T12:04:09;99045.09;;;21.54;49.52
46392;BME280;32098;49.448;7.904;2023-10-08T12:06:43;99050.56;;;21.49;49.32
46392;BME280;32098;49.448;7.904;2023-10-08T12:09:14;99044.59;;;21.47;49.31
46392;BME280;32098;49.448;7.904;2023-10-08T12:11:41;99046.19;;;21.48;49.90
46392;BME280;32098;49.448;7.904;2023-10-08T12:14:09;99050.50;;;21.59;50.25
46392;BME280;32098;49.448;7.904;2023-10-08T12:16:37;99052.91;;;21.61;49.57
46392;BME280;32098;49.448;7.904;2023-10-08T12:19:06;99048.34;;;21.51;49.33
46392;BME280;32098;49.448;7.904;2023-10-08T12:21:43;99046.13;;;21.58;49.22
46392;BME280;32098;49.448;7.904;2023-10-08T12:24:13;99039.31;;;21.61;49.70
46392;BME280;32098;49.448;7.904;2023-10-08T12:26:41;99008.97;;;21.49;49.25
46392;BME280;32098;49.448;7.904;2023-10-08T12:29:14;99034.34;;;21.78;49.93
46392;BME280;32098;49.448;7.904;2023-10-08T12:31:41;99043.06;;;21.80;49.58
46392;BME280;32098;49.448;7.904;2023-10-08T12:34:07;99037.63;;;21.80;50.02
46392;BME280;32098;49.448;7.904;2023-10-08T12:36:38;99042.75;;;21.81;48.87
46392;BME280;32098;49.448;7.904;2023-10-08T12:39:05;99047.69;;;21.74;49.68
46392;BME280;32098;49.448;7.904;2023-10-08T12:41:44;99056.34;;;21.76;49.27
46392;BME280;32098;49.448;7.904;2023-10-08T12:44:12;99007.63;;;21.46;51.89
46392;BME280;32098;49.448;7.904;2023-10-08T12:46:39;99047.69;;;21.74;50.55
46392;BME280;32098;49.448;7.904;2023-10-08T12:49:10;99040.31;;;21.85;50.43
46392;BME280;32098;49.448;7.904;2023-10-08T12:51:37;99038.38;;;21.85;49.78
46392;BME280;32098;49.448;7.904;2023-10-08T12:54:07;99043.22;;;21.94;49.49
46392;BME280;32098;49.448;7.904;2023-10-08T12:56:38;99044.84;;;21.95;48.87
46392;BME280;32098;49.448;7.904;2023-10-08T12:59:11;99037.78;;;21.94;49.05
46392;BME280;32098;49.448;7.904;2023-10-08T13:01:47;99029.41;;;21.85;48.58
46392;BME280;32098;49.448;7.904;2023-10-08T13:04:18;99033.47;;;21.88;48.51
46392;BME280;32098;49.448;7.904;2023-10-08T13:06:56;99022.09;;;21.80;48.41
46392;BME280;32098;49.448;7.904;2023-10-08T13:09:24;99022.63;;;21.82;48.77
46392;BME280;32098;49.448;7.904;2023-10-08T13:11:51;99024.22;;;21.89;48.15
46392;BME280;32098;49.448;7.904;2023-10-08T13:14:18;99022.78;;;21.96;48.52
46392;BME280;32098;49.448;7.904;2023-10-08T13:16:45;99023.34;;;21.93;47.15
46392;BME280;32098;49.448;7.904;2023-10-08T13:19:12;99028.19;;;22.01;47.79
46392;BME280;32098;49.448;7.904;2023-10-08T13:21:38;99022.44;;;22.03;48.15
46392;BME280;32098;49.448;7.904;2023-10-08T13:24:05;99023.22;;;22.08;48.37
46392;BME280;32098;49.448;7.904;2023-10-08T13:26:36;99022.75;;;22.01;50.06
46392;BME280;32098;49.448;7.904;2023-10-08T13:29:05;99021.97;;;21.96;48.82